Time;durP1;ratioP1;P1;durP2;ratioP2;P2;SDS_P1;SDS_P2;PMS_P1;PMS_P2;Temp;Humidity;BMP_temperature;BMP_pressure;BME280_temperature;BME280_humidity;BME280_pressure;Samples;Min_cycle;Max_cycle;Signal;HPM_P1;HPM_P2
2023/02/14 00:03:59;;;;;;;;;;;;;;;2.18;100.00;103387.88;10496730;28;20271;-65
2023/02/14 00:09:02;;;;;;;;;;;;;;;2.35;100.00;103400.28;10457634;28;19932;-65
2023/02/14 00:19:24;;;;;;;;;;;;;;;2.10;100.00;103397.25;10457304;28;19986;-65
2023/02/14 00:24:27;;;;;;;;;;;;;;;2.02;100.00;103398.78;10498146;28;19951;-66
2023/02/14 00:29:30;;;;;;;;;;;;;;;2.10;100.00;103389.47;10479228;28;20322;-65
2023/02/14 00:34:35;;;;;;;;;;;;;;;2.20;100.00;103393.09;10478223;28;19924;-66
2023/02/14 00:39:37;;;;;;;;;;;;;;;1.95;100.00;103384.88;10467893;28;19929;-65
2023/02/14 00:44:40;;;;;;;;;;;;;;;2.15;100.00;103384.38;10504497;28;20007;-65
2023/02/14 00:49:42;;;;;;;;;;;;;;;2.09;100.00;103379.97;10504905;28;19939;-65
2023/02/14 00:54:44;;;;;;;;;;;;;;;1.84;100.00;103387.22;10494397;28;19925;-65
2023/02/14 00:59:47;;;;;;;;;;;;;;;2.15;100.00;103385.28;10477574;28;19932;-65
2023/02/14 01:04:49;;;;;;;;;;;;;;;2.04;100.00;103387.63;10463218;28;19928;-65
2023/02/14 01:09:51;;;;;;;;;;;;;;;1.77;100.00;103389.66;10445123;28;19924;-65
2023/02/14 01:14:54;;;;;;;;;;;;;;;1.89;100.00;103389.91;10461667;28;19978;-65
2023/02/14 01:19:56;;;;;;;;;;;;;;;1.89;100.00;103395.06;10461872;28;19936;-65
2023/02/14 01:24:59;;;;;;;;;;;;;;;1.77;100.00;103390.53;10460793;28;20375;-65
2023/02/14 01:30:01;;;;;;;;;;;;;;;1.85;100.00;103382.97;10461396;28;19925;-65
2023/02/14 01:35:03;;;;;;;;;;;;;;;1.75;100.00;103384.47;10461947;28;19928;-65
2023/02/14 01:40:07;;;;;;;;;;;;;;;1.81;100.00;103379.41;10487677;28;19924;-65
2023/02/14 01:45:19;;;;;;;;;;;;;;;1.53;100.00;103375.41;10500170;28;19931;-65
2023/02/14 01:50:23;;;;;;;;;;;;;;;1.55;100.00;103376.28;10502531;28;19970;-65
2023/02/14 01:55:27;;;;;;;;;;;;;;;1.57;100.00;103379.78;10466948;28;19929;-64
2023/02/14 02:05:51;;;;;;;;;;;;;;;1.47;100.00;103372.66;10473768;28;19925;-64
2023/02/14 02:10:53;;;;;;;;;;;;;;;1.27;100.00;103369.66;10460015;28;20359;-65
2023/02/14 02:16:11;;;;;;;;;;;;;;;1.58;100.00;103365.16;10495620;28;19924;-64
2023/02/14 02:21:22;;;;;;;;;;;;;;;1.49;100.00;103364.09;10481916;28;19932;-64
2023/02/14 02:26:43;;;;;;;;;;;;;;;1.67;100.00;103362.78;10473469;28;19928;-65
2023/02/14 02:31:49;;;;;;;;;;;;;;;1.71;100.00;103355.94;10458990;28;19928;-65
2023/02/14 02:36:57;;;;;;;;;;;;;;;1.80;100.00;103359.59;10464492;28;20446;-65
2023/02/14 02:42:03;;;;;;;;;;;;;;;1.84;100.00;103351.06;10499901;28;19924;-65
2023/02/14 02:47:27;;;;;;;;;;;;;;;1.69;100.00;103355.06;10499744;28;20446;-65
2023/02/14 02:53:01;;;;;;;;;;;;;;;1.84;100.00;103345.88;10461188;28;20030;-65
2023/02/14 02:58:04;;;;;;;;;;;;;;;1.96;100.00;103344.41;10470552;28;20277;-64
2023/02/14 03:08:27;;;;;;;;;;;;;;;1.65;100.00;103349.81;10497898;28;20420;-65
2023/02/14 03:13:29;;;;;;;;;;;;;;;1.66;100.00;103361.00;10497432;28;19925;-65
2023/02/14 03:23:55;;;;;;;;;;;;;;;1.65;100.00;103367.03;10499231;28;19924;-65
2023/02/14 03:29:02;;;;;;;;;;;;;;;1.53;100.00;103359.91;10498695;28;19924;-65
2023/02/14 03:34:09;;;;;;;;;;;;;;;1.77;100.00;103358.69;10496696;28;19977;-65
2023/02/14 03:39:15;;;;;;;;;;;;;;;1.95;100.00;103352.97;10497077;28;19932;-65
2023/02/14 03:44:19;;;;;;;;;;;;;;;1.83;100.00;103343.28;10494720;28;20345;-65
2023/02/14 03:49:22;;;;;;;;;;;;;;;1.83;100.00;103344.16;10478787;28;19924;-65
2023/02/14 03:54:24;;;;;;;;;;;;;;;1.71;100.00;103353.38;10472833;28;19924;-65
2023/02/14 03:59:26;;;;;;;;;;;;;;;1.90;100.00;103352.91;10471889;28;19935;-65
2023/02/14 04:04:30;;;;;;;;;;;;;;;1.70;100.00;103355.09;10471844;28;19925;-65
2023/02/14 04:09:32;;;;;;;;;;;;;;;1.69;100.00;103350.75;10473324;28;20425;-65
2023/02/14 04:14:34;;;;;;;;;;;;;;;1.91;100.00;103352.06;10494356;28;19978;-65
2023/02/14 04:19:36;;;;;;;;;;;;;;;1.55;100.00;103353.06;10469206;28;19951;-65
2023/02/14 04:24:39;;;;;;;;;;;;;;;1.57;100.00;103353.94;10463946;28;20375;-65
2023/02/14 04:29:42;;;;;;;;;;;;;;;1.68;100.00;103364.50;10463674;28;20015;-65
2023/02/14 04:34:45;;;;;;;;;;;;;;;1.70;100.00;103359.38;10500364;28;20384;-65
2023/02/14 04:39:47;;;;;;;;;;;;;;;1.62;100.00;103359.22;10505404;28;19928;-65
2023/02/14 04:44:49;;;;;;;;;;;;;;;1.48;100.00;103351.19;10488076;22;19932;-64
2023/02/14 04:49:51;;;;;;;;;;;;;;;1.68;100.00;103349.00;10462462;28;19928;-64
2023/02/14 04:54:53;;;;;;;;;;;;;;;2.19;100.00;103347.44;10462556;28;19924;-64
2023/02/14 04:59:56;;;;;;;;;;;;;;;2.14;100.00;103338.72;10463302;28;19980;-64
2023/02/14 05:04:58;;;;;;;;;;;;;;;2.21;100.00;103333.66;10461205;28;19928;-64
2023/02/14 05:10:01;;;;;;;;;;;;;;;2.04;100.00;103327.31;10462171;28;20331;-64
2023/02/14 05:15:03;;;;;;;;;;;;;;;2.16;100.00;103332.72;10462763;28;19974;-65
2023/02/14 05:20:05;;;;;;;;;;;;;;;2.21;100.00;103336.25;10460915;28;19978;-64
2023/02/14 05:25:07;;;;;;;;;;;;;;;2.20;100.00;103333.63;10444023;28;19925;-64
2023/02/14 05:30:10;;;;;;;;;;;;;;;2.13;100.00;103324.03;10461186;28;19978;-64
2023/02/14 05:35:12;;;;;;;;;;;;;;;2.20;100.00;103329.38;10460884;28;19963;-64
2023/02/14 05:40:15;;;;;;;;;;;;;;;2.33;100.00;103326.97;10461742;28;19925;-64
2023/02/14 05:45:17;;;;;;;;;;;;;;;2.06;100.00;103325.63;10443302;28;19925;-64
2023/02/14 05:50:19;;;;;;;;;;;;;;;2.09;100.00;103320.53;10460323;28;19932;-64
2023/02/14 05:55:23;;;;;;;;;;;;;;;2.12;100.00;103324.88;10442492;28;19924;-64
2023/02/14 06:00:25;;;;;;;;;;;;;;;2.08;100.00;103323.09;10442571;28;19929;-64
2023/02/14 06:05:28;;;;;;;;;;;;;;;2.06;100.00;103329.94;10460694;28;19928;-64
2023/02/14 06:10:30;;;;;;;;;;;;;;;1.96;100.00;103332.34;10441915;28;19925;-64
2023/02/14 06:15:32;;;;;;;;;;;;;;;1.88;100.00;103323.56;10460144;28;19928;-64
2023/02/14 06:20:35;;;;;;;;;;;;;;;1.72;100.00;103326.72;10441778;28;19978;-64
2023/02/14 06:25:37;;;;;;;;;;;;;;;1.71;100.00;103328.41;10458942;28;19931;-64
2023/02/14 06:30:39;;;;;;;;;;;;;;;1.61;100.00;103335.09;10458903;28;19948;-64
2023/02/14 06:35:42;;;;;;;;;;;;;;;1.69;100.00;103326.66;10459190;28;20004;-64
2023/02/14 06:40:44;;;;;;;;;;;;;;;1.56;100.00;103335.84;10458242;28;19924;-64
2023/02/14 06:45:46;;;;;;;;;;;;;;;1.47;100.00;103339.09;10457370;28;19929;-64
2023/02/14 06:50:49;;;;;;;;;;;;;;;1.70;100.00;103339.59;10441302;28;19929;-64
2023/02/14 06:55:51;;;;;;;;;;;;;;;1.64;100.00;103342.91;10457330;28;19925;-64
2023/02/14 07:00:54;;;;;;;;;;;;;;;1.63;100.00;103348.94;10458005;28;19925;-64
2023/02/14 07:05:56;;;;;;;;;;;;;;;1.79;100.00;103350.09;10456272;28;19931;-64
2023/02/14 07:10:58;;;;;;;;;;;;;;;1.63;100.00;103355.78;10440330;28;19929;-64
2023/02/14 07:16:01;;;;;;;;;;;;;;;1.73;100.00;103362.91;10440462;28;19932;-64
2023/02/14 07:21:04;;;;;;;;;;;;;;;1.80;100.00;103362.19;10458835;28;19925;-64
2023/02/14 07:26:06;;;;;;;;;;;;;;;2.03;100.00;103360.06;10458465;28;19925;-64
2023/02/14 07:31:08;;;;;;;;;;;;;;;2.08;100.00;103364.44;10456649;28;19925;-64
2023/02/14 07:36:10;;;;;;;;;;;;;;;2.44;100.00;103363.34;10457492;28;19925;-64
2023/02/14 07:41:12;;;;;;;;;;;;;;;2.56;100.00;103361.88;10457434;28;19974;-64
2023/02/14 07:46:16;;;;;;;;;;;;;;;2.95;100.00;103357.31;10456548;28;19924;-64
2023/02/14 07:51:18;;;;;;;;;;;;;;;3.10;100.00;103359.28;10456595;28;20376;-64
2023/02/14 07:56:20;;;;;;;;;;;;;;;3.30;100.00;103360.44;10457105;28;19925;-64
2023/02/14 08:01:23;;;;;;;;;;;;;;;3.95;100.00;103356.06;10455634;28;19924;-65
2023/02/14 08:06:26;;;;;;;;;;;;;;;4.11;100.00;103353.66;10456803;28;19925;-64
2023/02/14 08:16:49;;;;;;;;;;;;;;;4.82;100.00;103348.25;10456692;28;19925;-64
2023/02/14 08:21:51;;;;;;;;;;;;;;;5.14;100.00;103336.31;10455265;28;19947;-65
2023/02/14 08:26:54;;;;;;;;;;;;;;;6.02;100.00;103344.53;10497171;28;19947;-65
2023/02/14 08:31:59;;;;;;;;;;;;;;;6.24;100.00;103325.50;10456427;28;19952;-65
2023/02/14 08:37:01;;;;;;;;;;;;;;;6.38;100.00;103325.50;10455774;28;19925;-66
2023/02/14 08:42:03;;;;;;;;;;;;;;;7.21;100.00;103324.53;10435120;28;21345;-65
2023/02/14 08:47:06;;;;;;;;;;;;;;;7.65;100.00;103327.84;10453436;28;19928;-65
2023/02/14 08:52:08;;;;;;;;;;;;;;;8.10;97.69;103329.38;10455885;28;20013;-65
2023/02/14 08:57:10;;;;;;;;;;;;;;;8.55;93.67;103313.38;10458561;28;19987;-65
2023/02/14 09:02:12;;;;;;;;;;;;;;;8.89;94.11;103320.91;10463297;28;19971;-65
2023/02/14 09:07:14;;;;;;;;;;;;;;;9.72;87.47;103317.34;10463028;28;19931;-65
2023/02/14 09:12:17;;;;;;;;;;;;;;;10.29;87.01;103308.66;10462242;28;20295;-65
2023/02/14 09:17:19;;;;;;;;;;;;;;;10.86;80.78;103305.06;10462086;28;20330;-66
2023/02/14 09:22:22;;;;;;;;;;;;;;;10.86;78.80;103306.81;10462371;28;19931;-66
2023/02/14 09:27:24;;;;;;;;;;;;;;;11.57;77.07;103302.78;10460489;28;19925;-66
2023/02/14 09:32:27;;;;;;;;;;;;;;;12.84;75.57;103306.72;10460877;28;19929;-66
2023/02/14 09:42:56;;;;;;;;;;;;;;;13.64;70.91;103306.25;10461489;28;19925;-66
2023/02/14 09:48:17;;;;;;;;;;;;;;;15.28;68.00;103299.88;10459699;28;20411;-66
2023/02/14 09:53:27;;;;;;;;;;;;;;;13.59;65.58;103302.91;10461195;28;19929;-66
2023/02/14 09:58:33;;;;;;;;;;;;;;;15.99;64.02;103302.41;10475833;28;19995;-66
2023/02/14 10:03:38;;;;;;;;;;;;;;;15.66;60.84;103304.59;10459640;28;19928;-66
2023/02/14 10:08:47;;;;;;;;;;;;;;;15.82;57.80;103297.81;10459499;28;19932;-66
2023/02/14 10:13:57;;;;;;;;;;;;;;;17.50;57.10;103289.69;10458716;28;20463;-66
2023/02/14 10:19:01;;;;;;;;;;;;;;;16.85;57.14;103287.38;10460237;28;19928;-66
2023/02/14 10:24:10;;;;;;;;;;;;;;;17.24;55.23;103289.13;10458854;28;19925;-66
2023/02/14 10:29:16;;;;;;;;;;;;;;;18.07;57.45;103286.97;10458576;28;19925;-67
2023/02/14 10:34:39;;;;;;;;;;;;;;;16.90;56.97;103285.38;10457871;28;20430;-67
2023/02/14 10:39:56;;;;;;;;;;;;;;;16.02;57.48;103282.94;10458733;28;19925;-67
2023/02/14 10:45:19;;;;;;;;;;;;;;;18.12;53.32;103272.56;10458856;28;19931;-66
2023/02/14 10:50:37;;;;;;;;;;;;;;;17.85;51.72;103285.34;10473696;28;20387;-67
2023/02/14 10:55:46;;;;;;;;;;;;;;;17.81;53.15;103282.00;10457684;28;19928;-67
2023/02/14 11:00:54;;;;;;;;;;;;;;;20.01;50.81;103272.13;10473433;28;20281;-67
2023/02/14 11:05:57;;;;;;;;;;;;;;;20.04;48.64;103263.13;10456704;28;19971;-67
2023/02/14 11:11:18;;;;;;;;;;;;;;;20.45;47.54;103254.47;10457639;28;19936;-67
2023/02/14 11:16:28;;;;;;;;;;;;;;;20.27;50.14;103252.91;10458138;28;19925;-67
2023/02/14 11:21:35;;;;;;;;;;;;;;;20.34;49.30;103241.81;10472451;28;20012;-67
2023/02/14 11:26:37;;;;;;;;;;;;;;;21.22;48.55;103235.53;10455959;28;19947;-68
2023/02/14 11:31:40;;;;;;;;;;;;;;;21.52;43.65;103236.25;10455754;28;19929;-68
2023/02/14 11:36:43;;;;;;;;;;;;;;;22.45;44.33;103222.03;10457633;28;19925;-68
2023/02/14 11:41:55;;;;;;;;;;;;;;;21.38;43.98;103232.72;10457238;28;19931;-68
2023/02/14 11:47:15;;;;;;;;;;;;;;;21.65;45.70;103220.28;10451689;28;19932;-68
2023/02/14 11:52:18;;;;;;;;;;;;;;;24.04;44.76;103211.31;10439535;28;19925;-68
2023/02/14 11:57:26;;;;;;;;;;;;;;;22.70;40.33;103204.28;10459780;28;19925;-69
2023/02/14 12:02:29;;;;;;;;;;;;;;;23.12;41.40;103194.16;10438049;28;19925;-69
2023/02/14 12:07:37;;;;;;;;;;;;;;;22.76;41.82;103177.13;10456981;28;19983;-69
2023/02/14 12:12:59;;;;;;;;;;;;;;;21.39;42.59;103175.81;10439231;28;19936;-69
2023/02/14 12:18:08;;;;;;;;;;;;;;;20.69;42.24;103158.97;10456184;28;19925;-69
2023/02/14 12:23:10;;;;;;;;;;;;;;;22.87;42.78;103147.81;10456036;28;20332;-69
2023/02/14 12:28:14;;;;;;;;;;;;;;;22.47;42.02;103140.03;10456573;28;19925;-69
2023/02/14 12:33:19;;;;;;;;;;;;;;;23.10;39.55;103135.50;10444892;28;19931;-69
2023/02/14 12:38:45;;;;;;;;;;;;;;;23.31;39.52;103124.16;10446071;28;19978;-69
2023/02/14 12:43:49;;;;;;;;;;;;;;;22.47;40.83;103125.84;10446059;28;19974;-69
2023/02/14 12:48:55;;;;;;;;;;;;;;;23.43;39.96;103112.53;10446313;28;19929;-69
2023/02/14 12:54:07;;;;;;;;;;;;;;;23.34;39.87;103118.59;10463693;28;19979;-69
2023/02/14 12:59:21;;;;;;;;;;;;;;;22.55;40.40;103108.28;10445913;28;19929;-69
2023/02/14 13:04:36;;;;;;;;;;;;;;;19.55;44.18;103111.78;10463318;28;19933;-69
2023/02/14 13:09:59;;;;;;;;;;;;;;;21.77;42.26;103101.31;10462246;28;19924;-69
2023/02/14 13:15:20;;;;;;;;;;;;;;;22.23;39.93;103095.41;10444739;28;19976;-69
2023/02/14 13:20:35;;;;;;;;;;;;;;;22.88;39.10;103076.56;10462759;28;19929;-69
2023/02/14 13:25:40;;;;;;;;;;;;;;;23.66;37.74;103077.84;10444865;28;19925;-69
2023/02/14 13:30:42;;;;;;;;;;;;;;;25.30;33.76;103068.22;10444128;28;19974;-69
2023/02/14 13:35:45;;;;;;;;;;;;;;;26.25;34.29;103062.66;10461466;28;20327;-69
2023/02/14 13:40:47;;;;;;;;;;;;;;;25.26;36.19;103056.94;10444180;28;19925;-69
2023/02/14 13:45:50;;;;;;;;;;;;;;;25.86;34.03;103046.41;10442427;28;20338;-69
2023/02/14 13:50:52;;;;;;;;;;;;;;;24.55;36.66;103043.19;10460776;28;19925;-69
2023/02/14 13:55:55;;;;;;;;;;;;;;;22.39;37.58;103043.63;10460683;28;19925;-69
2023/02/14 14:00:57;;;;;;;;;;;;;;;18.67;45.58;103034.50;10460482;28;19932;-69
2023/02/14 14:06:06;;;;;;;;;;;;;;;17.61;49.03;103038.41;10460998;28;19929;-69
2023/02/14 14:11:20;;;;;;;;;;;;;;;22.34;39.57;103029.78;10442468;28;20406;-68
2023/02/14 14:16:22;;;;;;;;;;;;;;;17.33;48.15;103037.19;10460505;28;19925;-68
2023/02/14 14:21:26;;;;;;;;;;;;;;;16.38;51.49;103037.31;10460103;28;19975;-68
2023/02/14 14:26:29;;;;;;;;;;;;;;;16.85;50.18;103026.28;10442490;28;19925;-68
2023/02/14 14:31:32;;;;;;;;;;;;;;;14.81;54.98;103026.41;10441415;28;19925;-68
2023/02/14 14:36:34;;;;;;;;;;;;;;;14.79;57.10;103019.47;10441340;28;19940;-68
2023/02/14 14:41:36;;;;;;;;;;;;;;;15.26;54.71;103021.09;10458860;28;20288;-68
2023/02/14 14:46:38;;;;;;;;;;;;;;;14.26;57.32;103017.97;10424555;28;19978;-68
2023/02/14 14:51:40;;;;;;;;;;;;;;;13.55;59.11;103013.47;10458900;28;19955;-67
2023/02/14 14:57:01;;;;;;;;;;;;;;;12.79;62.91;103012.47;10440685;28;19975;-67
2023/02/14 15:02:18;;;;;;;;;;;;;;;13.49;61.52;103008.44;10458770;28;19925;-67
2023/02/14 15:07:31;;;;;;;;;;;;;;;12.83;62.97;103006.19;10440225;28;19932;-67
2023/02/14 15:17:54;;;;;;;;;;;;;;;12.24;65.45;102999.22;10457522;28;20368;-67
2023/02/14 15:22:57;;;;;;;;;;;;;;;12.32;65.25;103001.59;10457454;28;19975;-67
2023/02/14 15:28:01;;;;;;;;;;;;;;;11.59;67.46;103007.13;10439846;28;20273;-67
2023/02/14 15:33:04;;;;;;;;;;;;;;;11.97;66.02;103007.88;10439270;28;20269;-67
2023/02/14 15:38:06;;;;;;;;;;;;;;;11.37;68.39;103004.22;10439444;28;19932;-67
2023/02/14 15:43:13;;;;;;;;;;;;;;;10.60;70.65;103012.13;10457096;28;19929;-67
2023/02/14 15:48:28;;;;;;;;;;;;;;;10.30;72.76;103013.63;10423142;28;19925;-67
2023/02/14 15:53:34;;;;;;;;;;;;;;;9.90;73.32;103001.31;10439009;28;19925;-67
2023/02/14 15:58:37;;;;;;;;;;;;;;;9.40;77.03;102994.38;10438971;28;20292;-67
2023/02/14 16:03:42;;;;;;;;;;;;;;;9.57;76.90;102991.47;10438748;28;20362;-66
2023/02/14 16:08:52;;;;;;;;;;;;;;;9.22;77.27;102987.72;10446539;28;20008;-66
2023/02/14 16:13:54;;;;;;;;;;;;;;;8.66;79.64;102992.09;10447583;28;19925;-66
2023/02/14 16:18:57;;;;;;;;;;;;;;;8.93;79.63;103001.25;10447412;28;19925;-66
2023/02/14 16:24:09;;;;;;;;;;;;;;;8.80;78.71;103000.56;10446562;28;19994;-66
2023/02/14 16:29:13;;;;;;;;;;;;;;;8.35;81.13;103006.38;10464883;28;20025;-66
2023/02/14 16:34:15;;;;;;;;;;;;;;;8.27;81.68;102997.78;10446868;28;19929;-67
2023/02/14 16:39:19;;;;;;;;;;;;;;;8.17;81.85;103001.41;10463155;28;19929;-67
2023/02/14 16:44:21;;;;;;;;;;;;;;;7.90;84.46;103003.44;10444594;28;19929;-66
2023/02/14 16:49:24;;;;;;;;;;;;;;;7.60;83.12;103007.22;10462886;28;19925;-66
2023/02/14 16:54:26;;;;;;;;;;;;;;;7.35;84.16;103004.81;10462775;28;19932;-66
2023/02/14 16:59:28;;;;;;;;;;;;;;;7.01;86.96;103007.69;10535610;22;19923;-67
2023/02/14 17:04:31;;;;;;;;;;;;;;;6.79;86.58;103000.88;10572733;28;20377;-67
2023/02/14 17:09:35;;;;;;;;;;;;;;;6.97;87.32;102999.91;10588634;28;19924;-66
2023/02/14 17:14:38;;;;;;;;;;;;;;;6.83;87.06;103006.06;10588399;28;19931;-67
2023/02/14 17:19:40;;;;;;;;;;;;;;;6.70;89.32;103002.66;10584509;28;20344;-66
2023/02/14 17:24:42;;;;;;;;;;;;;;;6.60;90.08;103002.75;10588095;28;19924;-66
2023/02/14 17:29:45;;;;;;;;;;;;;;;6.47;88.63;103017.53;10586498;27;19993;-66
2023/02/14 17:34:48;;;;;;;;;;;;;;;5.97;91.09;103014.28;10587623;28;20063;-66
2023/02/14 17:39:51;;;;;;;;;;;;;;;6.15;89.69;103018.53;10585738;28;20119;-66
2023/02/14 17:44:53;;;;;;;;;;;;;;;5.93;91.92;103023.78;10593417;27;19927;-66
2023/02/14 17:49:56;;;;;;;;;;;;;;;5.65;92.76;103028.16;10586301;28;20290;-66
2023/02/14 17:54:58;;;;;;;;;;;;;;;5.82;95.04;103029.88;10586767;28;19924;-66
2023/02/14 18:00:04;;;;;;;;;;;;;;;5.77;95.12;103024.69;10559424;28;19928;-66
2023/02/14 18:05:06;;;;;;;;;;;;;;;5.74;97.15;103025.53;10546821;28;19946;-66
2023/02/14 18:10:09;;;;;;;;;;;;;;;5.52;96.54;103026.44;10539172;28;20280;-66
2023/02/14 18:15:11;;;;;;;;;;;;;;;5.52;96.62;103018.66;10525099;28;20401;-66
2023/02/14 18:20:13;;;;;;;;;;;;;;;5.54;98.52;103022.97;10542811;28;20276;-66
2023/02/14 18:25:16;;;;;;;;;;;;;;;5.43;99.18;103010.84;10542147;28;19924;-66
2023/02/14 18:30:18;;;;;;;;;;;;;;;5.41;100.00;103005.66;10523469;28;19924;-66
2023/02/14 18:35:21;;;;;;;;;;;;;;;5.28;100.00;102999.59;10525171;28;19928;-66
2023/02/14 18:40:23;;;;;;;;;;;;;;;5.24;99.46;102997.84;10542110;28;20379;-66
2023/02/14 18:45:25;;;;;;;;;;;;;;;5.15;98.24;102990.94;10541284;28;19931;-66
2023/02/14 18:50:27;;;;;;;;;;;;;;;5.03;100.00;102988.34;10542408;28;19963;-66
2023/02/14 18:55:29;;;;;;;;;;;;;;;4.96;100.00;102983.97;10540389;28;19924;-66
2023/02/14 19:00:32;;;;;;;;;;;;;;;5.20;100.00;102977.97;10541331;28;20436;-66
2023/02/14 19:05:36;;;;;;;;;;;;;;;5.31;100.00;102978.84;10541060;28;19928;-66
2023/02/14 19:10:38;;;;;;;;;;;;;;;5.25;100.00;102964.97;10541025;28;19924;-66
2023/02/14 19:15:40;;;;;;;;;;;;;;;5.43;100.00;102962.38;10540494;28;19928;-66
2023/02/14 19:20:42;;;;;;;;;;;;;;;5.45;100.00;102959.78;10485603;28;19925;-66
2023/02/14 19:25:46;;;;;;;;;;;;;;;5.15;100.00;102962.38;10517664;28;19930;-65
2023/02/14 19:30:48;;;;;;;;;;;;;;;5.12;100.00;102954.56;10520147;28;19932;-66
2023/02/14 19:36:00;;;;;;;;;;;;;;;4.71;100.00;102936.38;10539902;28;19930;-66
2023/02/14 19:41:02;;;;;;;;;;;;;;;4.38;100.00;102940.63;10522275;28;19924;-66
2023/02/14 19:46:04;;;;;;;;;;;;;;;4.23;100.00;102938.84;10539786;28;19924;-66
2023/02/14 19:51:07;;;;;;;;;;;;;;;4.31;100.00;102944.09;10539981;28;19924;-65
2023/02/14 19:56:09;;;;;;;;;;;;;;;4.00;100.00;102941.34;10522054;28;20274;-65
2023/02/14 20:01:17;;;;;;;;;;;;;;;3.98;100.00;102940.47;10538836;28;20256;-65
2023/02/14 20:06:20;;;;;;;;;;;;;;;3.86;100.00;102938.69;10521278;28;19924;-65
2023/02/14 20:11:35;;;;;;;;;;;;;;;3.71;100.00;102936.88;10539340;28;19928;-65
2023/02/14 20:16:37;;;;;;;;;;;;;;;3.76;100.00;102932.59;10539413;28;19924;-65
2023/02/14 20:21:40;;;;;;;;;;;;;;;3.72;100.00;102930.88;10522164;28;19924;-66
2023/02/14 20:26:43;;;;;;;;;;;;;;;3.64;100.00;102927.34;10537875;28;19924;-66
2023/02/14 20:31:47;;;;;;;;;;;;;;;3.51;100.00;102927.31;10537997;28;20394;-66
2023/02/14 20:36:52;;;;;;;;;;;;;;;3.55;100.00;102920.41;10538176;28;20283;-66
2023/02/14 20:41:54;;;;;;;;;;;;;;;3.54;100.00;102913.47;10539514;28;19974;-66
2023/02/14 20:46:56;;;;;;;;;;;;;;;3.42;100.00;102911.69;10539645;28;19924;-66
2023/02/14 20:51:58;;;;;;;;;;;;;;;3.46;100.00;102921.22;10521022;28;19924;-66
2023/02/14 20:57:01;;;;;;;;;;;;;;;3.51;100.00;102914.34;10546973;28;19981;-65
2023/02/14 21:02:03;;;;;;;;;;;;;;;3.47;100.00;102904.81;10551126;28;19924;-65
2023/02/14 21:07:09;;;;;;;;;;;;;;;3.31;100.00;102900.38;10546043;28;19924;-66
2023/02/14 21:12:11;;;;;;;;;;;;;;;3.10;100.00;102896.78;10545653;28;20514;-66
2023/02/14 21:17:13;;;;;;;;;;;;;;;2.93;100.00;102896.66;10527128;28;19931;-65
2023/02/14 21:22:16;;;;;;;;;;;;;;;2.74;100.00;102897.34;10545168;28;19932;-65
2023/02/14 21:27:18;;;;;;;;;;;;;;;2.68;100.00;102892.16;10545052;28;19977;-65
2023/02/14 21:32:20;;;;;;;;;;;;;;;2.48;100.00;102887.63;10543675;28;19924;-65
2023/02/14 21:37:22;;;;;;;;;;;;;;;2.63;100.00;102878.31;10544750;28;19924;-65
2023/02/14 21:42:25;;;;;;;;;;;;;;;2.49;100.00;102876.47;10523400;28;19985;-66
2023/02/14 21:47:27;;;;;;;;;;;;;;;2.25;100.00;102871.88;10543857;28;19924;-66
2023/02/14 21:52:29;;;;;;;;;;;;;;;2.39;100.00;102869.47;10544167;28;20321;-66
2023/02/14 21:57:31;;;;;;;;;;;;;;;2.23;100.00;102865.84;10543221;28;19928;-66
2023/02/14 22:02:33;;;;;;;;;;;;;;;2.10;100.00;102862.28;10541831;28;20349;-66
2023/02/14 22:07:36;;;;;;;;;;;;;;;2.21;100.00;102871.00;10544060;28;20016;-66
2023/02/14 22:12:38;;;;;;;;;;;;;;;1.94;100.00;102862.94;10543925;28;19924;-66
2023/02/14 22:17:40;;;;;;;;;;;;;;;2.00;100.00;102858.72;10541952;28;20276;-65
2023/02/14 22:22:43;;;;;;;;;;;;;;;2.07;100.00;102859.66;10542853;28;20279;-65
2023/02/14 22:27:45;;;;;;;;;;;;;;;1.88;100.00;102855.97;10541853;28;19925;-65
2023/02/14 22:32:47;;;;;;;;;;;;;;;1.80;100.00;102858.47;10543172;28;19924;-65
2023/02/14 22:37:49;;;;;;;;;;;;;;;1.85;100.00;102856.81;10525058;28;19924;-65
2023/02/14 22:42:51;;;;;;;;;;;;;;;1.74;100.00;102865.28;10542338;28;19936;-65
2023/02/14 22:47:54;;;;;;;;;;;;;;;1.66;100.00;102860.91;10541456;28;19928;-65
2023/02/14 22:52:56;;;;;;;;;;;;;;;1.82;100.00;102849.03;10541769;28;20321;-65
2023/02/14 22:58:00;;;;;;;;;;;;;;;1.98;100.00;102847.47;10523930;28;20435;-65
2023/02/14 23:03:02;;;;;;;;;;;;;;;1.90;100.00;102850.81;10584267;28;19927;-65
2023/02/14 23:08:04;;;;;;;;;;;;;;;1.82;100.00;102838.69;10564583;28;19931;-65
2023/02/14 23:23:49;;;;;;;;;;;;;;;2.13;100.00;102848.50;10583487;28;19924;-65
2023/02/14 23:28:51;;;;;;;;;;;;;;;1.99;100.00;102846.63;10580937;28;19973;-65
2023/02/14 23:33:54;;;;;;;;;;;;;;;1.81;100.00;102843.84;10580826;28;19924;-65
2023/02/14 23:38:56;;;;;;;;;;;;;;;1.84;100.00;102843.88;10582454;28;20392;-65
2023/02/14 23:43:58;;;;;;;;;;;;;;;1.69;100.00;102841.97;10582916;28;19930;-65
2023/02/14 23:49:00;;;;;;;;;;;;;;;1.76;100.00;102842.91;10581563;28;19950;-65
2023/02/14 23:54:03;;;;;;;;;;;;;;;1.71;100.00;102842.84;10579920;28;19928;-65
2023/02/14 23:59:05;;;;;;;;;;;;;;;2.03;100.00;102837.19;10581816;28;20393;-65
